YHR weather

Chevery Airport
Chevery, Quebec, Canada

Public forecast

Using degrees Celsius for public forecast. Weather courtesy of forecast.io.

METAR (pilot weather report)

Closest report is Natashquan Airport, 84.2 nm (155.9 km) W. Retrieved 2019/07/17 21:00 UTC (40 minutes ago):

CYNA 172100Z AUTO 20012G17KT 9SM FEW034 BKN042 OVC055 19/16 A2958 RMK SLP017 DENSITY ALT 900FT

TAF (pilot weather forecast)

Closest forecast is Natashquan Airport, 84.2 nm (155.9 km) W. Retrieved 2019/07/17 20:00 UTC (2 hours ago):

TAF CYNA 171939Z 1720/1808 17012KT P6SM SCT040 BKN060 FM180000 26012KT P6SM SKC BECMG 1801/1803 32012KT RMK FCST BASED ON AUTO OBS. NXT FCST BY 180200Z